Melbourne, Victoria

2:22 AM AEST on September 23, 2014 (GMT +1000)
AO-SC3 | Change Station
CLOSE
Current Station
Personal Weather Station
Location: Melbourne, VICTORIA
Elevation: 23 ft
Nearby Weather Stations

Elev 23 ft 37.82 °S, 144.98 °E | Updated 14 minutes ago

Clear
Clear
51.9 °F
Feels Like 51.9 °F
N
1.0
Wind Variable Wind from SW
Gusts 3.0 mph

Today
High -- | Low -- °F
--% Chance of Precip.
Yesterday
High -- | Low -- °F
Precip. -- in
6:08 AM 6:17 PM
Waning Crescent, 2% visible
Pressure 30.30 in
Visibility -9999.0 miles
Clouds
Dew Point 45 °F
Humidity 78%
Rainfall 0.00 in
Snow Depth Not available.
UV Not available.
Pollen Not available.
Air Quality Not available.
Flu Activity Not available.
METAR YMML 221600Z 36014KT CAVOK 10/05 Q1026 FM1630 36015G25KT CAVOK

More Conditions Fewer Conditions

Pressure 30.30 in
Visibility -9999.0 miles
Clouds
Dew Point 45 °F
Humidity 78%
Rainfall 0.00 in
Snow Depth Not available.
UV Not available.
Pollen Not available.
Air Quality Not available.
Flu Activity Not available.
METAR YMML 221600Z 36014KT CAVOK 10/05 Q1026 FM1630 36015G25KT CAVOK

More Conditions Fewer Conditions

10-Day Weather Forecast

Almanac

Astronomy

Sep. 23, 2014 Rise Set
Actual Time 6:08 AM AEST 6:17 PM AEST
Civil Twilight 5:42 AM AEST 6:43 PM AEST
Nautical Twilight 5:12 AM AEST 7:13 PM AEST
Astronomical Twilight 4:41 AM AEST 7:45 PM AEST
Moon 5:20 AM AEST (9/23) 5:23 PM AEST (9/23)
Length of Visible Light 13h 00m
Length of Day
12h 08m
Tomorrow will be 2m 25s longer.
Waning Crescent, 2% of the Moon is Illuminated
Sep 22
Waning Crescent
Sep 24
New
Oct 1
First Quarter
Oct 8
Full
Oct 15
Last Quarter

Yesterday's Extremes

Country Highs Country Lows

Community

WunderPhotos

Upload Photos

1,755,478 photos uploaded!

WunderBlogs® & News

By Dr. Jeff Masters
Director of Meteorology, Weather Underground
By Kari Strenfel
Meteorologist, Weather Underground
By Christopher C. Burt
Weather Historian, Weather Underground
September 22, 2014
September 22, 2014
September 22, 2014

Nearby

Snow Depth

Not available.

Earthquake Activity

City Distance Mag. Time & Date
No recent earthquake activity has been reported nearby.
Minimum magnitude displayed is 2.5.

Coastal Water Temperatures

Place Temperature
No Stations Reporting

Nearby Weather Stations